首页
METAR-TAF:

METAR-TAF

机场 :

伏努科沃國際機場

莫斯科Vnukovo, 俄罗斯

纬度: 55-39N, 经度: 037-16E, 海拔: 203米

当前天气观测

该预报发布于18分钟前的18:30 UTC
风速6节,风向南转南东
温度 0°C
湿度 86%
气压 1029 hPa
能见度10公里或以上
1500米以下无云,无积雨云

METAR: UUWW 151830Z 15003MPS CAVOK 00/M02 Q1029 R24/290050 NOSIG

时间: 21:48 (18:48 UTC)

预报

该预报发布于1小时和53分钟前的16:55 UTC
预报有效从15日的 18点(UTC)到 16日的 18点(UTC)
风速6节,风向南转南东,有时为17节阵风
能見度: 8000
多云层高于1100英尺
短暂存在
从 15日的 21点(UTC)到 16日的 08点(UTC)
能見度: 3100
多云层高于400英尺
轻雾
几率 40% :
短暂存在
从 15日的 21点(UTC)到 16日的 08点(UTC)
阴天层高于300英尺
(小) 冻, 毛毛雨

TAF: UUWW 151655Z 1518/1618 15003G09MPS 8000 BKN011 TX03/1612Z TNM02/1603Z TEMPO 1521/1608 3100 BR BKN004 PROB40 TEMPO 1521/1608 -FZDZ OVC003

超过4000个机场的气象观测和天气预报(METAR&TAF报告)。

可查询的气象台以黄色和红色小点在地图上表示。

将鼠标移到小点上方,可查看气象台名称。

然后点击查看天气观测和预报。

如需切换地图:点击带黑十字的绿色按钮放大地图;点击带横线的绿色按钮缩小地图;或者点击绿色箭头查看邻近地区的地图。


METAR-TAF: